B18 weather

Alton Bay Seaplane Base
Alton Bay, New Hampshire, United States

Public forecast

Using degrees Fahrenheit for public forecast. Weather courtesy of forecast.io.

METAR (pilot weather report)

Closest report is Laconia Municipal Airport, 9.8 nm (18.1 km) NW. Retrieved 2019/04/19 15:56 UTC (22 minutes ago):

KLCI 191556Z AUTO 00000KT 10SM OVC028 14/12 A2975 RMK AO2 SLP095 T01390117 PWINO $

TAF (pilot weather forecast)

Closest forecast is Concord Municipal Airport, 20.2 nm (37.3 km) SW. Retrieved 2019/04/19 12:22 UTC (4 hours ago):

TAF KCON 191120Z 1912/2012 VRB04KT 5SM BR OVC022 WS020/23045KT FM191400 20009G16KT P6SM BKN020 FM191800 20010G18KT P6SM OVC050 FM192300 18010KT 2SM -DZ BR OVC005